Time,TemperatureF,DewpointF,PressureIn,WindDirection,WindDirectionDegrees,WindSpeedMPH,WindSpeedGustMPH,Humidity,HourlyPrecipIn,Conditions,Clouds,dailyrainin,SoftwareType,DateUTC
2013-07-07 00:00:00,61.0,59.0,29.59,NE,45,0.0,-999.0,93,-99.99,,,0.00,Acu-Link.com,2013-07-07 07:00:00,
2013-07-07 00:15:00,60.6,58.9,29.59,South,180,0.0,-999.0,94,-99.99,,,0.00,Acu-Link.com,2013-07-07 07:15:00,
2013-07-07 00:30:00,60.3,58.6,29.59,ESE,112,0.0,-999.0,94,-99.99,,,0.00,Acu-Link.com,2013-07-07 07:30:00,
2013-07-07 00:45:00,59.7,57.7,29.58,ENE,67,0.0,-999.0,93,-99.99,,,0.00,Acu-Link.com,2013-07-07 07:45:00,
2013-07-07 01:01:00,59.4,58.3,29.58,East,90,0.0,-999.0,96,-99.99,,,0.00,Acu-Link.com,2013-07-07 08:01:00,
2013-07-07 01:16:00,59.4,58.3,29.58,NE,45,0.0,-999.0,96,-99.99,,,0.00,Acu-Link.com,2013-07-07 08:16:00,
2013-07-07 01:31:00,59.0,57.9,29.58,NE,45,0.0,-999.0,96,-99.99,,,0.00,Acu-Link.com,2013-07-07 08:31:00,
2013-07-07 01:46:00,58.8,57.7,29.58,NW,315,0.0,-999.0,96,-99.99,,,0.00,Acu-Link.com,2013-07-07 08:46:00,
2013-07-07 02:02:00,58.3,57.2,29.59,North,0,0.0,-999.0,96,-99.99,,,0.00,Acu-Link.com,2013-07-07 09:02:00,
2013-07-07 02:17:00,57.9,56.8,29.58,ESE,112,0.0,-999.0,96,-99.99,,,0.00,Acu-Link.com,2013-07-07 09:17:00,
2013-07-07 02:32:00,57.6,56.8,29.59,NE,45,0.0,-999.0,97,-99.99,,,0.00,Acu-Link.com,2013-07-07 09:32:00,
2013-07-07 02:47:00,57.2,56.4,29.58,NE,45,0.0,-999.0,97,-99.99,,,0.00,Acu-Link.com,2013-07-07 09:47:00,
2013-07-07 03:02:00,56.8,56.0,29.58,NE,45,0.0,-999.0,97,-99.99,,,0.00,Acu-Link.com,2013-07-07 10:02:00,
2013-07-07 03:17:00,56.7,56.1,29.58,ESE,112,0.0,-999.0,98,-99.99,,,0.00,Acu-Link.com,2013-07-07 10:17:00,
2013-07-07 03:33:00,56.5,55.9,29.58,NNE,22,0.0,-999.0,98,-99.99,,,0.00,Acu-Link.com,2013-07-07 10:33:00,
2013-07-07 03:48:00,56.3,56.0,29.59,NE,45,0.0,-999.0,99,-99.99,,,0.00,Acu-Link.com,2013-07-07 10:48:00,
2013-07-07 04:03:00,56.1,55.8,29.58,SSE,157,0.0,-999.0,99,-99.99,,,0.00,Acu-Link.com,2013-07-07 11:03:00,
2013-07-07 04:18:00,55.6,55.3,29.58,NE,45,0.0,-999.0,99,-99.99,,,0.00,Acu-Link.com,2013-07-07 11:18:00,
2013-07-07 04:33:00,55.4,55.1,29.58,West,270,0.0,-999.0,99,-99.99,,,0.00,Acu-Link.com,2013-07-07 11:33:00,
2013-07-07 04:48:00,55.4,55.1,29.58,South,180,0.0,-999.0,99,-99.99,,,0.00,Acu-Link.com,2013-07-07 11:48:00,
2013-07-07 05:03:00,54.7,54.4,29.58,NE,45,0.0,-999.0,99,-99.99,,,0.00,Acu-Link.com,2013-07-07 12:03:00,
2013-07-07 05:18:00,54.5,54.2,29.59,NE,45,0.0,-999.0,99,-99.99,,,0.00,Acu-Link.com,2013-07-07 12:18:00,
2013-07-07 05:33:00,54.5,54.2,29.59,WSW,247,0.0,-999.0,99,-99.99,,,0.00,Acu-Link.com,2013-07-07 12:33:00,
2013-07-07 05:49:00,55.2,54.9,29.60,South,180,0.0,-999.0,99,-99.99,,,0.00,Acu-Link.com,2013-07-07 12:49:00,
2013-07-07 06:04:00,55.6,55.3,29.61,SE,135,0.0,-999.0,99,-99.99,,,0.00,Acu-Link.com,2013-07-07 13:04:00,
2013-07-07 06:19:00,56.1,55.8,29.61,SW,225,0.0,-999.0,99,-99.99,,,0.00,Acu-Link.com,2013-07-07 13:19:00,
2013-07-07 06:34:00,56.5,56.2,29.62,SSE,157,0.0,-999.0,99,-99.99,,,0.00,Acu-Link.com,2013-07-07 13:34:00,
2013-07-07 06:49:00,56.8,56.5,29.63,NW,315,0.0,-999.0,99,-99.99,,,0.00,Acu-Link.com,2013-07-07 13:49:00,
2013-07-07 07:04:00,57.6,57.3,29.62,NW,315,0.0,-999.0,99,-99.99,,,0.00,Acu-Link.com,2013-07-07 14:04:00,
2013-07-07 07:19:00,58.1,57.8,29.62,South,180,0.0,-999.0,99,-99.99,,,0.00,Acu-Link.com,2013-07-07 14:19:00,
2013-07-07 07:34:00,58.8,58.5,29.62,SW,225,0.0,-999.0,99,-99.99,,,0.00,Acu-Link.com,2013-07-07 14:34:00,
2013-07-07 07:49:00,60.1,59.0,29.63,NNE,22,0.0,-999.0,96,-99.99,,,0.00,Acu-Link.com,2013-07-07 14:49:00,
2013-07-07 08:05:00,61.2,58.9,29.62,SSE,157,2.7,-999.0,92,-99.99,,,0.00,Acu-Link.com,2013-07-07 15:05:00,
2013-07-07 08:20:00,62.6,59.6,29.62,WNW,292,0.0,-999.0,90,-99.99,,,0.00,Acu-Link.com,2013-07-07 15:20:00,
2013-07-07 08:35:00,68.9,61.4,29.63,West,270,0.0,-999.0,77,-99.99,,,0.00,Acu-Link.com,2013-07-07 15:35:00,
2013-07-07 08:50:00,72.7,61.5,29.63,WSW,247,2.2,-999.0,68,-99.99,,,0.00,Acu-Link.com,2013-07-07 15:50:00,
2013-07-07 09:05:00,76.5,62.0,29.64,WSW,247,2.2,-999.0,61,-99.99,,,0.00,Acu-Link.com,2013-07-07 16:05:00,
2013-07-07 09:20:00,80.4,62.7,29.63,WSW,247,2.7,-999.0,55,-99.99,,,0.00,Acu-Link.com,2013-07-07 16:20:00,
2013-07-07 09:35:00,82.9,62.9,29.63,NE,45,0.0,-999.0,51,-99.99,,,0.00,Acu-Link.com,2013-07-07 16:35:00,
2013-07-07 09:50:00,86.5,63.2,29.64,WNW,292,2.7,-999.0,46,-99.99,,,0.00,Acu-Link.com,2013-07-07 16:50:00,
2013-07-07 10:05:00,76.1,61.2,29.62,SSW,202,2.2,-999.0,60,-99.99,,,0.00,Acu-Link.com,2013-07-07 17:05:00,
2013-07-07 10:21:00,77.4,61.9,29.62,NNW,337,1.7,-999.0,59,-99.99,,,0.00,Acu-Link.com,2013-07-07 17:21:00,
2013-07-07 10:36:00,80.1,62.5,29.62,NNW,337,1.7,-999.0,55,-99.99,,,0.00,Acu-Link.com,2013-07-07 17:36:00,
2013-07-07 10:51:00,81.5,63.2,29.62,ESE,112,2.7,-999.0,54,-99.99,,,0.00,Acu-Link.com,2013-07-07 17:51:00,
2013-07-07 11:06:00,83.3,63.3,29.61,North,0,2.2,-999.0,51,-99.99,,,0.00,Acu-Link.com,2013-07-07 18:06:00,
2013-07-07 11:21:00,85.1,62.0,29.61,SSE,157,2.2,-999.0,46,-99.99,,,0.00,Acu-Link.com,2013-07-07 18:21:00,
2013-07-07 11:36:00,86.4,63.1,29.61,South,180,1.7,-999.0,46,-99.99,,,0.00,Acu-Link.com,2013-07-07 18:36:00,
2013-07-07 11:51:00,88.3,62.9,29.61,West,270,2.2,-999.0,43,-99.99,,,0.00,Acu-Link.com,2013-07-07 18:51:00,
2013-07-07 12:06:00,89.8,64.3,29.61,SW,225,3.2,-999.0,43,-99.99,,,0.00,Acu-Link.com,2013-07-07 19:06:00,
2013-07-07 12:21:00,90.7,64.4,29.60,NW,315,2.7,-999.0,42,-99.99,,,0.00,Acu-Link.com,2013-07-07 19:21:00,
2013-07-07 12:36:00,90.3,63.4,29.60,NNW,337,1.7,-999.0,41,-99.99,,,0.00,Acu-Link.com,2013-07-07 19:36:00,
2013-07-07 12:52:00,90.3,62.7,29.61,SSW,202,4.7,-999.0,40,-99.99,,,0.00,Acu-Link.com,2013-07-07 19:52:00,
2013-07-07 13:07:00,90.7,62.3,29.60,NNW,337,3.7,-999.0,39,-99.99,,,0.00,Acu-Link.com,2013-07-07 20:07:00,
2013-07-07 13:22:00,91.6,63.1,29.59,WSW,247,3.2,-999.0,39,-99.99,,,0.00,Acu-Link.com,2013-07-07 20:22:00,
2013-07-07 13:37:00,91.4,62.9,29.58,SSE,157,3.7,-999.0,39,-99.99,,,0.00,Acu-Link.com,2013-07-07 20:37:00,
2013-07-07 13:52:00,92.1,62.8,29.59,SSW,202,6.3,-999.0,38,-99.99,,,0.00,Acu-Link.com,2013-07-07 20:52:00,
2013-07-07 14:07:00,92.1,63.5,29.58,SW,225,4.2,-999.0,39,-99.99,,,0.00,Acu-Link.com,2013-07-07 21:07:00,
2013-07-07 14:22:00,92.1,62.8,29.57,West,270,3.7,-999.0,38,-99.99,,,0.00,Acu-Link.com,2013-07-07 21:22:00,
2013-07-07 14:37:00,93.4,63.9,29.56,West,270,2.7,-999.0,38,-99.99,,,0.00,Acu-Link.com,2013-07-07 21:37:00,
2013-07-07 14:52:00,92.5,63.1,29.57,SSW,202,3.7,-999.0,38,-99.99,,,0.00,Acu-Link.com,2013-07-07 21:52:00,
2013-07-07 15:08:00,93.7,62.7,29.56,West,270,4.7,-999.0,36,-99.99,,,0.00,Acu-Link.com,2013-07-07 22:08:00,
2013-07-07 15:23:00,94.6,62.7,29.55,SW,225,2.7,-999.0,35,-99.99,,,0.00,Acu-Link.com,2013-07-07 22:23:00,
2013-07-07 15:38:00,94.1,61.4,29.55,SW,225,4.7,-999.0,34,-99.99,,,0.00,Acu-Link.com,2013-07-07 22:38:00,
2013-07-07 15:53:00,93.9,60.4,29.54,North,0,3.2,-999.0,33,-99.99,,,0.00,Acu-Link.com,2013-07-07 22:53:00,
2013-07-07 16:08:00,93.9,58.6,29.55,SW,225,3.2,-999.0,31,-99.99,,,0.00,Acu-Link.com,2013-07-07 23:08:00,
2013-07-07 16:23:00,93.7,57.5,29.56,WNW,292,2.7,-999.0,30,-99.99,,,0.00,Acu-Link.com,2013-07-07 23:23:00,
2013-07-07 16:39:00,93.7,56.6,29.54,SSW,202,5.3,-999.0,29,-99.99,,,0.00,Acu-Link.com,2013-07-07 23:39:00,
2013-07-07 16:54:00,92.5,56.5,29.55,West,270,1.7,-999.0,30,-99.99,,,0.00,Acu-Link.com,2013-07-07 23:54:00,
2013-07-07 17:09:00,93.7,56.6,29.54,SW,225,2.7,-999.0,29,-99.99,,,0.00,Acu-Link.com,2013-07-08 00:09:00,
2013-07-07 17:24:00,99.3,58.3,29.54,NNW,337,1.7,-999.0,26,-99.99,,,0.00,Acu-Link.com,2013-07-08 00:24:00,
2013-07-07 17:39:00,100.8,58.5,29.53,WNW,292,1.7,-999.0,25,-99.99,,,0.00,Acu-Link.com,2013-07-08 00:39:00,
2013-07-07 17:54:00,98.4,57.5,29.53,South,180,3.7,-999.0,26,-99.99,,,0.00,Acu-Link.com,2013-07-08 00:54:00,
2013-07-07 18:09:00,96.8,58.3,29.54,SW,225,2.7,-999.0,28,-99.99,,,0.00,Acu-Link.com,2013-07-08 01:09:00,
2013-07-07 18:24:00,96.1,58.6,29.54,ESE,112,2.2,-999.0,29,-99.99,,,0.00,Acu-Link.com,2013-07-08 01:24:00,
2013-07-07 18:40:00,91.9,59.5,29.54,SE,135,2.7,-999.0,34,-99.99,,,0.00,Acu-Link.com,2013-07-08 01:40:00,
2013-07-07 18:55:00,87.4,59.4,29.53,WSW,247,1.7,-999.0,39,-99.99,,,0.00,Acu-Link.com,2013-07-08 01:55:00,
2013-07-07 19:10:00,83.5,59.9,29.53,SW,225,3.2,-999.0,45,-99.99,,,0.00,Acu-Link.com,2013-07-08 02:10:00,
2013-07-07 19:25:00,82.4,60.1,29.54,SSW,202,2.7,-999.0,47,-99.99,,,0.00,Acu-Link.com,2013-07-08 02:25:00,
2013-07-07 19:40:00,79.7,60.5,29.54,SSW,202,1.7,-999.0,52,-99.99,,,0.00,Acu-Link.com,2013-07-08 02:40:00,
2013-07-07 19:55:00,78.3,60.3,29.54,NW,315,0.0,-999.0,54,-99.99,,,0.00,Acu-Link.com,2013-07-08 02:55:00,
2013-07-07 20:10:00,76.5,60.1,29.55,WNW,292,0.0,-999.0,57,-99.99,,,0.00,Acu-Link.com,2013-07-08 03:10:00,
2013-07-07 20:26:00,74.8,59.5,29.56,WNW,292,0.0,-999.0,59,-99.99,,,0.00,Acu-Link.com,2013-07-08 03:26:00,
2013-07-07 20:41:00,73.2,58.9,29.56,NNW,337,0.0,-999.0,61,-99.99,,,0.00,Acu-Link.com,2013-07-08 03:41:00,
2013-07-07 20:56:00,72.0,58.7,29.58,South,180,0.0,-999.0,63,-99.99,,,0.00,Acu-Link.com,2013-07-08 03:56:00,
2013-07-07 21:11:00,70.7,58.8,29.58,ESE,112,0.0,-999.0,66,-99.99,,,0.00,Acu-Link.com,2013-07-08 04:11:00,
2013-07-07 21:26:00,69.6,58.6,29.59,SSE,157,0.0,-999.0,68,-99.99,,,0.00,Acu-Link.com,2013-07-08 04:26:00,
2013-07-07 21:41:00,68.4,58.2,29.60,East,90,0.0,-999.0,70,-99.99,,,0.00,Acu-Link.com,2013-07-08 04:41:00,
2013-07-07 21:56:00,67.6,58.2,29.61,East,90,0.0,-999.0,72,-99.99,,,0.00,Acu-Link.com,2013-07-08 04:56:00,
2013-07-07 22:11:00,66.7,58.1,29.61,ESE,112,0.0,-999.0,74,-99.99,,,0.00,Acu-Link.com,2013-07-08 05:11:00,
2013-07-07 22:26:00,65.8,57.6,29.62,ESE,112,0.0,-999.0,75,-99.99,,,0.00,Acu-Link.com,2013-07-08 05:26:00,
2013-07-07 22:41:00,64.8,57.8,29.63,SE,135,0.0,-999.0,78,-99.99,,,0.00,Acu-Link.com,2013-07-08 05:41:00,
2013-07-07 22:57:00,64.4,57.7,29.63,East,90,0.0,-999.0,79,-99.99,,,0.00,Acu-Link.com,2013-07-08 05:57:00,
2013-07-07 23:12:00,63.5,57.9,29.63,NNE,22,0.0,-999.0,82,-99.99,,,0.00,Acu-Link.com,2013-07-08 06:12:00,
2013-07-07 23:27:00,62.8,58.2,29.63,West,270,0.0,-999.0,85,-99.99,,,0.00,Acu-Link.com,2013-07-08 06:27:00,
2013-07-07 23:42:00,62.2,58.0,29.64,NNE,22,0.0,-999.0,86,-99.99,,,0.00,Acu-Link.com,2013-07-08 06:42:00,
2013-07-07 23:57:00,61.9,57.7,29.64,East,90,0.0,-999.0,86,-99.99,,,0.00,Acu-Link.com,2013-07-08 06:57:00,